Main page
METAR-TAF:

METAR-TAF

Airports :

Chandigarh International Airport

Chandigarh, India

latitude: 30-40-29N, longitude: 76-47-26E, elevation: 314 m

Current weather observation

The report was made 43 minutes ago, at 01:30 UTC
Wind 5 kt from the Northwest
Temperature 13°C
Humidity 82%
Pressure 1014 hPa
Visibility: 4000 m
Few clouds at a height of 25000 ft
mist

METAR: VICG 160130Z 31005KT 4000 BR FEW250 13/10 Q1014 NOSIG

Time: 07:43 (02:13 UTC)


TAF: missing

Weather observations and forecasts of more than 4000 airports (METAR and TAF reports).

The available stations are represented by yellow and red dots on the map.

Hover mouse over dot to see the name of the station.

Then click to see weather observations and forecasts.

To change the map : click on the green buttons with a black cross to zoom in, on the green button with a dash to zoom out, or on the green arrows for adjacent maps.


METAR-TAF: